Bakersville, Ohio
Current Conditions -  °F | °C
As of 2:53 PM on Friday 19 Dec 2014 (Local Time) from KPHD Reporting Station
Overcast Overcast  
Wind Chill: 32°   Ceiling: 1900
Heat Index: 32°   Visibility: 9mi
Dew Point: 25°   Wind: 3mph
Humidity: 75%   Direction: 270°W
Pressure: 30.23"   Gusts: NA
Location:  40.36°N, 81.65°W
Report Text: KPHD 191953Z AUTO 27003KT 9SM OVC019 00/M04 A3023 RMK AO2 SLP248 T00001039
Loading
Personal Weather Stations






























Interactive Weather Map New forecast layout! Learn more

10-Day Weather Forecast

Advertisements
Track Severe Weather on mobile